createdAt,value
2018-07-09T00:02:23.676Z,5.87
2018-07-09T00:04:52.350Z,6.03
2018-07-09T00:07:20.933Z,6.00
2018-07-09T00:09:49.535Z,5.87
2018-07-09T00:12:18.124Z,6.30
2018-07-09T00:14:46.713Z,6.30
2018-07-09T00:17:15.332Z,6.40
2018-07-09T00:19:43.941Z,6.10
2018-07-09T00:22:12.605Z,6.30
2018-07-09T00:24:41.296Z,6.53
2018-07-09T00:27:09.922Z,5.70
2018-07-09T00:29:38.552Z,5.63
2018-07-09T00:32:07.158Z,6.17
2018-07-09T00:34:35.795Z,6.53
2018-07-09T00:39:39.240Z,6.60
2018-07-09T00:42:07.909Z,6.57
2018-07-09T00:44:36.513Z,6.73
2018-07-09T00:47:05.148Z,6.53
2018-07-09T00:49:33.785Z,6.10
2018-07-09T00:52:02.388Z,6.73
2018-07-09T00:54:31.070Z,6.07
2018-07-09T00:56:59.713Z,6.20
2018-07-09T00:59:28.370Z,6.00
2018-07-09T01:01:56.992Z,6.37
2018-07-09T01:04:25.601Z,6.03
2018-07-09T01:06:54.248Z,6.43
2018-07-09T01:09:22.843Z,6.83
2018-07-09T01:11:55.800Z,6.80
2018-07-09T01:14:24.390Z,7.33
2018-07-09T01:16:52.964Z,6.80
2018-07-09T01:19:21.623Z,7.23
2018-07-09T01:21:50.213Z,7.00
2018-07-09T01:24:18.787Z,7.10
2018-07-09T01:26:47.417Z,6.97
2018-07-09T01:29:15.988Z,6.97
2018-07-09T01:31:44.595Z,7.20
2018-07-09T01:34:13.194Z,7.07
2018-07-09T01:36:41.810Z,7.33
2018-07-09T01:39:10.490Z,7.03
2018-07-09T01:41:39.069Z,7.03
2018-07-09T01:44:07.696Z,6.90
2018-07-09T01:46:36.288Z,6.30
2018-07-09T01:49:04.889Z,7.40
2018-07-09T01:51:33.516Z,7.13
2018-07-09T01:54:02.111Z,7.60
2018-07-09T01:56:30.697Z,8.03
2018-07-09T01:58:59.288Z,6.90
2018-07-09T02:01:27.888Z,7.53
2018-07-09T02:03:56.466Z,7.03
2018-07-09T02:06:25.074Z,7.37
2018-07-09T02:08:53.708Z,8.33
2018-07-09T02:11:22.349Z,7.10
2018-07-09T02:13:50.973Z,7.50
2018-07-09T02:16:19.595Z,8.17
2018-07-09T02:18:48.177Z,7.33
2018-07-09T02:21:16.804Z,7.70
2018-07-09T02:23:45.416Z,7.83
2018-07-09T02:26:14.012Z,7.73
2018-07-09T02:28:42.622Z,7.57
2018-07-09T02:31:11.229Z,7.30
2018-07-09T02:33:39.856Z,7.93
2018-07-09T02:36:08.435Z,6.77
2018-07-09T02:38:37.020Z,7.73
2018-07-09T02:41:05.640Z,7.57
2018-07-09T02:43:34.229Z,7.90
2018-07-09T02:46:02.864Z,7.87
2018-07-09T02:48:31.449Z,7.43
2018-07-09T02:51:00.055Z,7.77
2018-07-09T02:53:28.629Z,7.97
2018-07-09T02:55:57.221Z,8.27
2018-07-09T02:58:25.902Z,6.70
2018-07-09T03:00:54.630Z,7.60
2018-07-09T03:03:23.189Z,8.20
2018-07-09T03:05:51.766Z,7.77
2018-07-09T03:08:20.345Z,8.13
2018-07-09T03:10:48.985Z,8.27
2018-07-09T03:13:17.600Z,8.80
2018-07-09T03:15:46.213Z,8.97
2018-07-09T03:18:14.817Z,8.10
2018-07-09T03:20:43.398Z,8.13
2018-07-09T03:23:12.055Z,8.57
2018-07-09T03:25:40.668Z,8.00
2018-07-09T03:28:09.291Z,9.30
2018-07-09T03:30:37.903Z,8.73
2018-07-09T03:33:06.485Z,8.30
2018-07-09T03:35:35.141Z,8.27
2018-07-09T03:38:03.726Z,8.80
2018-07-09T03:40:32.324Z,8.27
2018-07-09T03:43:01.792Z,8.47
2018-07-09T03:45:30.497Z,9.00
2018-07-09T03:47:59.072Z,9.23
2018-07-09T03:50:27.678Z,9.70
2018-07-09T03:52:56.301Z,9.47
2018-07-09T03:55:24.917Z,9.07
2018-07-09T03:57:53.556Z,9.07
2018-07-09T04:00:22.187Z,9.57
2018-07-09T04:02:50.834Z,9.57
2018-07-09T04:05:19.477Z,10.00
2018-07-09T04:07:48.172Z,9.57
2018-07-09T04:10:16.809Z,10.90
2018-07-09T04:12:45.408Z,10.60
2018-07-09T04:15:14.009Z,9.70
2018-07-09T04:17:42.648Z,10.30
2018-07-09T04:20:11.250Z,10.40
2018-07-09T04:22:39.844Z,9.97
2018-07-09T04:25:08.457Z,10.07
2018-07-09T04:27:37.054Z,9.67
2018-07-09T04:30:05.680Z,9.90
2018-07-09T04:32:34.284Z,10.43
2018-07-09T04:35:02.901Z,10.20
2018-07-09T04:37:31.628Z,10.17
2018-07-09T04:40:00.230Z,9.43
2018-07-09T04:42:28.883Z,9.27
2018-07-09T04:44:57.484Z,10.23
2018-07-09T04:47:26.935Z,9.73
2018-07-09T04:49:55.524Z,10.67
2018-07-09T04:52:24.101Z,9.87
2018-07-09T04:54:52.720Z,8.47
2018-07-09T04:57:21.299Z,10.00
2018-07-09T04:59:49.887Z,9.83
2018-07-09T05:02:18.474Z,9.63
2018-07-09T05:04:47.166Z,9.30
2018-07-09T05:07:15.759Z,10.10
2018-07-09T05:09:44.382Z,8.77
2018-07-09T05:12:12.978Z,9.80
2018-07-09T05:14:41.583Z,9.07
2018-07-09T05:17:10.211Z,9.30
2018-07-09T05:19:38.801Z,9.67
2018-07-09T05:22:07.418Z,8.60
2018-07-09T05:24:36.025Z,8.30
2018-07-09T05:27:04.616Z,8.30
2018-07-09T05:29:33.205Z,8.00
2018-07-09T05:32:01.789Z,8.10
2018-07-09T05:34:30.444Z,7.83
2018-07-09T05:36:59.064Z,7.53
2018-07-09T05:39:27.693Z,6.97
2018-07-09T05:41:56.285Z,7.37
2018-07-09T05:44:24.918Z,7.00
2018-07-09T05:46:53.538Z,6.40
2018-07-09T05:49:22.527Z,6.53
2018-07-09T05:51:51.133Z,6.70
2018-07-09T05:54:19.730Z,6.03
2018-07-09T05:56:48.333Z,5.63
2018-07-09T05:59:16.919Z,5.60
2018-07-09T06:01:45.512Z,5.87
2018-07-09T06:04:14.185Z,6.10
2018-07-09T06:06:44.717Z,4.80
2018-07-09T06:09:13.327Z,5.23
2018-07-09T06:11:42.284Z,5.93
2018-07-09T06:14:11.317Z,5.60
2018-07-09T06:16:50.519Z,4.80
2018-07-09T06:19:19.155Z,4.27
2018-07-09T06:21:47.770Z,5.73
2018-07-09T06:24:16.353Z,4.93
2018-07-09T06:26:44.980Z,4.80
2018-07-09T06:29:13.537Z,4.87
2018-07-09T06:31:42.136Z,4.70
2018-07-09T06:34:10.741Z,5.40
2018-07-09T06:36:39.337Z,5.30
2018-07-09T06:39:08.028Z,5.27
2018-07-09T06:41:36.719Z,5.13
2018-07-09T06:44:05.321Z,5.00
2018-07-09T06:46:33.913Z,4.93
2018-07-09T06:49:02.602Z,5.73
2018-07-09T06:51:31.292Z,5.43
2018-07-09T06:54:00.725Z,5.50
2018-07-09T06:56:29.285Z,5.50
2018-07-09T06:58:58.077Z,5.33
2018-07-09T07:01:26.972Z,5.40
2018-07-09T07:03:55.733Z,4.97
2018-07-09T07:06:24.440Z,5.00
2018-07-09T07:08:53.230Z,5.40
2018-07-09T07:11:22.112Z,5.20
2018-07-09T07:13:50.835Z,5.23
2018-07-09T07:16:19.730Z,4.93
2018-07-09T07:18:48.629Z,4.50
2018-07-09T07:21:17.388Z,4.47
2018-07-09T07:23:46.079Z,4.50
2018-07-09T07:26:14.780Z,4.90
2018-07-09T07:28:44.620Z,4.00
2018-07-09T07:31:16.390Z,4.50
2018-07-09T07:33:45.268Z,4.27
2018-07-09T07:36:14.141Z,5.30
2018-07-09T07:38:42.823Z,4.40
2018-07-09T07:41:11.624Z,4.83
2018-07-09T07:43:40.407Z,4.50
2018-07-09T07:46:09.199Z,4.60
2018-07-09T07:48:37.923Z,4.77
2018-07-09T07:51:06.819Z,4.23
2018-07-09T07:53:35.712Z,4.47
2018-07-09T07:56:04.505Z,4.60
2018-07-09T07:58:33.328Z,4.30
2018-07-09T08:01:02.060Z,4.83
2018-07-09T08:03:30.851Z,4.20
2018-07-09T08:05:59.547Z,4.10
2018-07-09T08:08:28.336Z,3.97
2018-07-09T08:10:57.259Z,4.30
2018-07-09T08:13:28.501Z,4.00
2018-07-09T08:15:55.051Z,4.00
2018-07-09T08:18:23.946Z,3.87
2018-07-09T08:20:52.812Z,4.50
2018-07-09T08:23:21.634Z,3.40
2018-07-09T08:25:50.309Z,3.00
2018-07-09T08:28:19.088Z,2.93
2018-07-09T08:30:47.879Z,2.77
2018-07-09T08:33:16.671Z,3.00
2018-07-09T08:35:45.463Z,3.00
2018-07-09T08:38:14.083Z,3.57
2018-07-09T08:40:42.639Z,3.20
2018-07-09T08:43:11.214Z,3.10
2018-07-09T08:45:39.752Z,3.00
2018-07-09T08:48:08.284Z,3.00
2018-07-09T08:50:36.840Z,2.70
2018-07-09T08:53:05.376Z,3.20
2018-07-09T08:55:34.132Z,3.03
2018-07-09T08:58:02.671Z,3.63
2018-07-09T09:00:31.244Z,2.87
2018-07-09T09:02:59.831Z,3.20
2018-07-09T09:05:28.708Z,3.43
2018-07-09T09:07:57.308Z,2.87
2018-07-09T09:10:25.926Z,3.30
2018-07-09T09:12:54.487Z,3.13
2018-07-09T09:15:23.075Z,2.90
2018-07-09T09:17:51.696Z,3.20
2018-07-09T09:20:20.252Z,3.03
2018-07-09T09:22:48.793Z,3.40
2018-07-09T09:25:17.328Z,2.97
2018-07-09T09:27:45.877Z,3.27
2018-07-09T09:30:14.408Z,3.07
2018-07-09T09:32:43.003Z,3.20
2018-07-09T09:35:11.557Z,3.60
2018-07-09T09:37:40.170Z,3.23
2018-07-09T09:40:08.756Z,3.10
2018-07-09T09:42:37.296Z,3.10
2018-07-09T09:45:05.829Z,3.00
2018-07-09T09:47:34.417Z,3.30
2018-07-09T09:50:02.613Z,3.57
2018-07-09T09:52:30.827Z,3.37
2018-07-09T09:57:44.232Z,3.43
2018-07-09T10:00:12.784Z,3.47
2018-07-09T10:02:41.400Z,3.37
2018-07-09T10:05:09.980Z,3.23
2018-07-09T10:07:38.504Z,3.63
2018-07-09T10:10:07.092Z,3.20
2018-07-09T10:12:35.644Z,3.83
2018-07-09T10:15:04.235Z,3.40
2018-07-09T10:17:32.850Z,3.43
2018-07-09T10:20:01.517Z,2.83
2018-07-09T10:22:30.113Z,3.00
2018-07-09T10:24:58.644Z,3.20
2018-07-09T10:27:27.197Z,3.37
2018-07-09T10:29:55.769Z,3.43
2018-07-09T10:32:24.316Z,3.30
2018-07-09T10:34:52.940Z,2.93
2018-07-09T10:37:21.532Z,3.30
2018-07-09T10:39:50.143Z,3.05
2018-07-09T10:42:18.699Z,3.00
2018-07-09T10:44:47.289Z,3.42
2018-07-09T10:47:15.877Z,2.90
2018-07-09T10:49:44.417Z,3.08
2018-07-09T10:52:12.955Z,2.90
2018-07-09T10:54:41.568Z,3.20
2018-07-09T10:57:10.124Z,2.60
2018-07-09T10:59:38.676Z,2.50
2018-07-09T11:02:07.275Z,2.60
2018-07-09T11:04:35.796Z,2.53
2018-07-09T11:07:04.406Z,2.37
2018-07-09T11:09:32.995Z,2.07
2018-07-09T11:12:01.541Z,2.22
2018-07-09T11:14:30.139Z,2.33
2018-07-09T11:16:58.712Z,2.40
2018-07-09T11:19:27.336Z,2.33
2018-07-09T11:21:55.916Z,2.15
2018-07-09T11:24:24.469Z,2.10
2018-07-09T11:26:53.049Z,2.12
2018-07-09T11:29:22.191Z,2.15
2018-07-09T11:31:51.108Z,2.17
2018-07-09T11:34:19.811Z,2.00
2018-07-09T11:36:48.660Z,2.20
2018-07-09T11:39:17.455Z,2.40
2018-07-09T11:41:46.245Z,2.27
2018-07-09T11:44:15.052Z,2.33
2018-07-09T11:46:43.861Z,2.50
2018-07-09T11:49:12.756Z,2.42
2018-07-09T11:51:41.650Z,2.08
2018-07-09T11:54:10.444Z,2.20
2018-07-09T11:56:39.339Z,1.98
2018-07-09T11:59:08.204Z,2.25
2018-07-09T12:01:36.908Z,2.60
2018-07-09T12:04:05.516Z,2.62
2018-07-09T12:06:34.375Z,2.70
2018-07-09T12:09:03.273Z,2.47
2018-07-09T12:11:32.057Z,2.90
2018-07-09T12:14:00.786Z,2.60
2018-07-09T12:16:29.373Z,2.50
2018-07-09T12:18:58.063Z,2.92
2018-07-09T12:21:26.847Z,3.20
2018-07-09T12:23:55.515Z,2.62
2018-07-09T12:26:24.308Z,2.77
2018-07-09T12:28:53.003Z,2.83
2018-07-09T12:31:21.822Z,2.10
2018-07-09T12:33:50.717Z,2.67
2018-07-09T12:36:19.652Z,2.30
2018-07-09T12:38:48.575Z,2.87
2018-07-09T12:41:17.301Z,2.40
2018-07-09T12:43:46.079Z,2.70
2018-07-09T12:46:14.751Z,3.17
2018-07-09T12:48:43.545Z,2.80
2018-07-09T12:51:12.339Z,2.42
2018-07-09T12:53:41.131Z,2.37
2018-07-09T12:56:09.919Z,2.40
2018-07-09T12:58:38.643Z,2.65
2018-07-09T13:01:07.418Z,2.45
2018-07-09T13:03:36.128Z,2.67
2018-07-09T13:06:05.448Z,2.50
2018-07-09T13:08:34.378Z,2.50
2018-07-09T13:11:03.222Z,2.37
2018-07-09T13:13:32.014Z,2.35
2018-07-09T13:16:00.908Z,2.30
2018-07-09T13:18:29.701Z,2.50
2018-07-09T13:20:58.663Z,2.75
2018-07-09T13:23:27.362Z,3.00
2018-07-09T13:25:56.565Z,2.77
2018-07-09T13:28:25.354Z,2.60
2018-07-09T13:30:54.061Z,2.50
2018-07-09T13:33:22.936Z,2.67
2018-07-09T13:35:51.762Z,2.70
2018-07-09T13:38:20.525Z,2.50
2018-07-09T13:40:49.313Z,2.70
2018-07-09T13:43:18.109Z,3.10
2018-07-09T13:45:46.724Z,2.83
2018-07-09T13:48:15.622Z,2.80
2018-07-09T13:50:44.392Z,3.27
2018-07-09T13:53:13.176Z,2.80
2018-07-09T13:55:41.896Z,2.73
2018-07-09T13:58:10.760Z,2.97
2018-07-09T14:00:39.552Z,2.50
2018-07-09T14:03:08.247Z,2.77
2018-07-09T14:05:37.065Z,2.90
2018-07-09T14:08:05.932Z,3.37
2018-07-09T14:10:34.621Z,2.60
2018-07-09T14:13:03.412Z,2.83
2018-07-09T14:15:32.339Z,3.40
2018-07-09T14:18:01.099Z,3.00
2018-07-09T14:20:34.937Z,3.27
2018-07-09T14:23:04.415Z,3.00
2018-07-09T14:25:33.211Z,3.00
2018-07-09T14:28:01.906Z,2.97
2018-07-09T14:30:30.688Z,2.80
2018-07-09T14:32:59.793Z,3.07
2018-07-09T14:35:28.480Z,3.10
2018-07-09T14:37:57.308Z,3.30
2018-07-09T14:40:26.267Z,3.05
2018-07-09T14:42:54.964Z,2.80
2018-07-09T14:45:23.756Z,2.87
2018-07-09T14:47:52.465Z,2.90
2018-07-09T14:50:21.036Z,2.72
2018-07-09T14:52:49.855Z,2.70
2018-07-09T14:55:18.627Z,2.85
2018-07-09T14:57:47.315Z,3.17
2018-07-09T15:00:16.251Z,3.02
2018-07-09T15:02:45.001Z,2.67
2018-07-09T15:05:13.687Z,2.70
2018-07-09T15:07:42.426Z,3.08
2018-07-09T15:10:11.371Z,3.15
2018-07-09T15:12:40.096Z,3.25
2018-07-09T15:15:09.092Z,3.05
2018-07-09T15:17:37.861Z,2.92
2018-07-09T15:20:06.852Z,3.08
2018-07-09T15:22:35.674Z,3.00
2018-07-09T15:25:04.590Z,2.90
2018-07-09T15:27:33.463Z,3.47
2018-07-09T15:30:02.365Z,2.90
2018-07-09T15:32:32.549Z,3.00
2018-07-09T15:35:01.261Z,2.60
2018-07-09T15:37:30.160Z,2.60
2018-07-09T15:39:58.704Z,3.22
2018-07-09T15:42:27.271Z,3.20
2018-07-09T15:44:55.831Z,2.67
2018-07-09T15:47:24.375Z,3.15
2018-07-09T15:49:52.935Z,3.08
2018-07-09T15:52:21.492Z,3.17
2018-07-09T15:54:50.083Z,3.10
2018-07-09T15:57:18.637Z,3.30
2018-07-09T15:59:47.188Z,3.10
2018-07-09T16:02:15.711Z,3.07
2018-07-09T16:04:44.261Z,3.07
2018-07-09T16:07:12.850Z,2.80
2018-07-09T16:09:41.394Z,3.37
2018-07-09T16:12:09.933Z,2.90
2018-07-09T16:14:38.477Z,3.07
2018-07-09T16:17:07.041Z,3.40
2018-07-09T16:19:35.588Z,3.50
2018-07-09T16:22:04.152Z,3.30
2018-07-09T16:24:33.034Z,3.10
2018-07-09T16:27:01.802Z,2.90
2018-07-09T16:29:30.590Z,2.97
2018-07-09T16:31:59.307Z,2.87
2018-07-09T16:34:28.081Z,3.37
2018-07-09T16:36:56.864Z,3.17
2018-07-09T16:39:25.686Z,3.43
2018-07-09T16:41:54.556Z,3.57
2018-07-09T16:44:23.239Z,3.17
2018-07-09T16:46:51.992Z,3.80
2018-07-09T16:49:20.823Z,3.27
2018-07-09T16:51:49.547Z,3.30
2018-07-09T16:54:18.413Z,2.70
2018-07-09T16:56:47.030Z,3.20
2018-07-09T16:59:15.617Z,2.67
2018-07-09T17:01:44.512Z,3.47
2018-07-09T17:04:13.389Z,3.10
2018-07-09T17:06:42.067Z,3.13
2018-07-09T17:09:10.860Z,2.90
2018-07-09T17:11:39.752Z,2.70
2018-07-09T17:14:08.549Z,2.97
2018-07-09T17:16:37.340Z,2.67
2018-07-09T17:19:06.259Z,2.70
2018-07-09T17:21:35.028Z,3.10
2018-07-09T17:24:03.853Z,2.93
2018-07-09T17:26:32.840Z,2.80
2018-07-09T17:29:01.507Z,2.90
2018-07-09T17:31:30.330Z,2.80
2018-07-09T17:33:59.122Z,2.93
2018-07-09T17:36:28.019Z,3.00
2018-07-09T17:38:56.955Z,3.13
2018-07-09T17:41:25.775Z,2.97
2018-07-09T17:43:54.482Z,3.03
2018-07-09T17:46:23.156Z,2.63
2018-07-09T17:48:51.776Z,3.17
2018-07-09T17:51:20.466Z,2.67
2018-07-09T17:53:49.334Z,3.27
2018-07-09T17:56:18.124Z,3.50
2018-07-09T17:58:46.951Z,3.27
2018-07-09T18:01:15.745Z,3.33
2018-07-09T18:03:44.511Z,3.37
2018-07-09T18:06:13.297Z,3.63
2018-07-09T18:08:42.088Z,3.30
2018-07-09T18:11:10.879Z,4.30
2018-07-09T18:13:39.713Z,3.77
2018-07-09T18:16:08.495Z,4.33
2018-07-09T18:18:37.162Z,3.87
2018-07-09T18:21:05.960Z,3.70
2018-07-09T18:23:34.640Z,3.70
2018-07-09T18:26:03.327Z,4.17
2018-07-09T18:28:32.151Z,4.10
2018-07-09T18:31:01.017Z,4.37
2018-07-09T18:33:29.698Z,4.17
2018-07-09T18:35:58.400Z,4.40
2018-07-09T18:38:27.281Z,3.93
2018-07-09T18:40:56.088Z,4.30
2018-07-09T18:43:24.905Z,4.33
2018-07-09T18:45:53.699Z,4.13
2018-07-09T18:48:22.518Z,4.83
2018-07-09T18:50:51.182Z,4.90
2018-07-09T18:53:19.976Z,5.23
2018-07-09T18:55:48.870Z,5.50
2018-07-09T18:58:17.678Z,5.30
2018-07-09T19:00:46.558Z,6.17
2018-07-09T19:03:15.453Z,5.90
2018-07-09T19:05:48.107Z,5.53
2018-07-09T19:08:16.824Z,5.10
2018-07-09T19:10:45.729Z,4.97
2018-07-09T19:13:14.614Z,5.00
2018-07-09T19:15:43.390Z,4.90
2018-07-09T19:18:23.458Z,4.03
2018-07-09T19:21:23.385Z,4.83
2018-07-09T19:23:51.875Z,4.50
2018-07-09T19:26:19.920Z,4.80
2018-07-09T19:28:48.098Z,4.13
2018-07-09T19:31:16.483Z,4.23
2018-07-09T19:33:44.527Z,3.83
2018-07-09T19:36:12.634Z,3.93
2018-07-09T19:38:40.883Z,4.60
2018-07-09T19:41:09.403Z,4.27
2018-07-09T19:43:37.687Z,3.83
2018-07-09T19:46:06.209Z,4.17
2018-07-09T19:48:34.414Z,4.20
2018-07-09T19:51:02.524Z,4.53
2018-07-09T19:53:30.600Z,3.73
2018-07-09T19:55:58.853Z,4.27
2018-07-09T19:58:27.068Z,4.33
2018-07-09T20:00:55.258Z,4.33
2018-07-09T20:03:23.434Z,4.23
2018-07-09T20:05:51.567Z,4.03
2018-07-09T20:08:19.644Z,4.53
2018-07-09T20:10:53.583Z,5.23
2018-07-09T20:13:26.882Z,4.10
2018-07-09T20:16:00.243Z,4.47
2018-07-09T20:18:28.966Z,4.83
2018-07-09T20:20:57.067Z,4.93
2018-07-09T20:23:25.192Z,4.97
2018-07-09T20:25:53.298Z,5.07
2018-07-09T20:28:21.377Z,5.80
2018-07-09T20:30:49.624Z,5.57
2018-07-09T20:33:17.806Z,5.87
2018-07-09T20:35:45.880Z,5.37
2018-07-09T20:38:13.964Z,5.30
2018-07-09T20:40:42.986Z,6.80
2018-07-09T20:43:11.060Z,6.10
2018-07-09T20:45:39.193Z,6.23
2018-07-09T20:48:07.392Z,5.60
2018-07-09T20:50:36.415Z,6.13
2018-07-09T20:53:05.209Z,5.53
2018-07-09T20:55:33.386Z,5.73
2018-07-09T20:58:01.433Z,6.47
2018-07-09T21:00:29.540Z,6.03
2018-07-09T21:02:57.615Z,6.40
2018-07-09T21:05:25.797Z,6.43
2018-07-09T21:07:53.974Z,6.30
2018-07-09T21:10:22.049Z,6.63
2018-07-09T21:12:56.676Z,6.17
2018-07-09T21:15:26.240Z,6.43
2018-07-09T21:17:54.231Z,5.80
2018-07-09T21:20:22.951Z,6.17
2018-07-09T21:22:51.502Z,6.90
2018-07-09T21:25:19.719Z,5.57
2018-07-09T21:27:48.000Z,6.00
2018-07-09T21:30:16.178Z,6.60
2018-07-09T21:32:44.329Z,7.30
2018-07-09T21:35:12.433Z,6.27
2018-07-09T21:37:40.607Z,6.80
2018-07-09T21:40:08.791Z,6.83
2018-07-09T21:42:36.971Z,6.70
2018-07-09T21:45:05.863Z,6.60
2018-07-09T21:47:33.978Z,6.10
2018-07-09T21:50:02.446Z,6.77
2018-07-09T21:52:30.769Z,6.37
2018-07-09T21:54:59.536Z,6.20
2018-07-09T21:57:27.653Z,6.27
2018-07-09T21:59:55.857Z,6.23
2018-07-09T22:02:23.904Z,6.37
2018-07-09T22:04:52.112Z,6.50
2018-07-09T22:07:21.016Z,7.33
2018-07-09T22:09:49.292Z,6.43
2018-07-09T22:12:17.468Z,6.60
2018-07-09T22:14:45.558Z,7.30
2018-07-09T22:17:13.928Z,6.63
2018-07-09T22:19:42.516Z,6.63
2018-07-09T22:22:10.668Z,6.57
2018-07-09T22:24:38.670Z,6.77
2018-07-09T22:27:07.328Z,6.50
2018-07-09T22:29:35.750Z,6.67
2018-07-09T22:32:04.746Z,6.20
2018-07-09T22:34:33.362Z,6.07
2018-07-09T22:37:01.954Z,6.13
2018-07-09T22:39:30.543Z,6.40
2018-07-09T22:41:59.182Z,6.57
2018-07-09T22:44:28.663Z,6.13
2018-07-09T22:46:57.325Z,5.93
2018-07-09T22:49:25.914Z,6.03
2018-07-09T22:51:54.493Z,5.67
2018-07-09T22:54:23.101Z,5.47
2018-07-09T22:56:51.695Z,5.90
2018-07-09T22:59:20.285Z,5.70
2018-07-09T23:01:48.928Z,4.80
2018-07-09T23:04:17.533Z,5.50
2018-07-09T23:06:46.156Z,5.23
2018-07-09T23:10:22.139Z,5.73
2018-07-09T23:12:55.968Z,5.20
2018-07-09T23:15:30.761Z,5.13
2018-07-09T23:18:04.876Z,4.70
2018-07-09T23:20:40.654Z,5.00
2018-07-09T23:23:08.587Z,5.30
2018-07-09T23:25:36.508Z,4.90
2018-07-09T23:28:04.432Z,4.80
2018-07-09T23:30:32.360Z,4.67
2018-07-09T23:33:00.324Z,4.90
2018-07-09T23:35:28.269Z,5.67
2018-07-09T23:37:56.194Z,4.30
2018-07-09T23:40:24.116Z,4.97
2018-07-09T23:42:52.041Z,4.60
2018-07-09T23:45:19.984Z,4.73
2018-07-09T23:47:47.916Z,5.10
2018-07-09T23:50:15.916Z,4.83
2018-07-09T23:52:43.828Z,4.50
2018-07-09T23:55:11.751Z,4.23
2018-07-09T23:57:54.858Z,4.27
